sensor_id;sensor_type;location;lat;lon;timestamp;pressure;altitude;pressure_sealevel;temperature;humidity
46223;BME280;31943;51.410;7.564;2023-03-04T08:52:24;101059.63;;;5.71;64.57
46223;BME280;31943;51.410;7.564;2023-03-04T08:54:49;101060.81;;;5.79;64.65
46223;BME280;31943;51.410;7.564;2023-03-04T08:57:15;101061.91;;;5.84;64.57
46223;BME280;31943;51.410;7.564;2023-03-04T08:59:41;101062.25;;;5.92;64.60
46223;BME280;31943;51.410;7.564;2023-03-04T09:02:12;101061.75;;;6.01;63.96
46223;BME280;31943;51.410;7.564;2023-03-04T09:04:38;101057.75;;;6.09;63.91
46223;BME280;31943;51.410;7.564;2023-03-04T09:07:03;101063.97;;;6.12;63.78
46223;BME280;31943;51.410;7.564;2023-03-04T09:09:31;101063.25;;;6.17;63.68
46223;BME280;31943;51.410;7.564;2023-03-04T09:12:03;101066.88;;;6.20;63.31
46223;BME280;31943;51.410;7.564;2023-03-04T09:14:28;101062.47;;;6.18;63.57
46223;BME280;31943;51.410;7.564;2023-03-04T09:16:54;101058.16;;;6.18;63.09
46223;BME280;31943;51.410;7.564;2023-03-04T09:19:20;101060.59;;;6.15;63.06
46223;BME280;31943;51.410;7.564;2023-03-04T09:21:45;101063.09;;;6.12;63.20
46223;BME280;31943;51.410;7.564;2023-03-04T09:24:12;101057.97;;;6.13;63.00
46223;BME280;31943;51.410;7.564;2023-03-04T09:26:59;101058.97;;;6.17;62.95
46223;BME280;31943;51.410;7.564;2023-03-04T09:29:25;101060.28;;;6.07;63.08
46223;BME280;31943;51.410;7.564;2023-03-04T09:31:55;101055.56;;;5.97;63.18
46223;BME280;31943;51.410;7.564;2023-03-04T09:34:23;101060.75;;;5.97;63.76
46223;BME280;31943;51.410;7.564;2023-03-04T09:36:49;101064.69;;;5.89;63.92
46223;BME280;31943;51.410;7.564;2023-03-04T09:39:16;101060.31;;;5.88;63.84
46223;BME280;31943;51.410;7.564;2023-03-04T09:41:44;101062.91;;;5.88;64.09
46223;BME280;31943;51.410;7.564;2023-03-04T09:44:25;101067.47;;;5.93;64.62
46223;BME280;31943;51.410;7.564;2023-03-04T09:46:54;101069.16;;;5.93;64.99
46223;BME280;31943;51.410;7.564;2023-03-04T09:49:21;101065.44;;;5.86;65.56
46223;BME280;31943;51.410;7.564;2023-03-04T09:51:56;101072.59;;;5.92;65.59
46223;BME280;31943;51.410;7.564;2023-03-04T09:54:48;101057.28;;;5.97;65.60
46223;BME280;31943;51.410;7.564;2023-03-04T09:57:29;101054.75;;;5.98;65.58
46223;BME280;31943;51.410;7.564;2023-03-04T10:00:21;101053.28;;;6.05;65.57
46223;BME280;31943;51.410;7.564;2023-03-04T10:03:20;101056.38;;;6.17;65.24
46223;BME280;31943;51.410;7.564;2023-03-04T10:05:52;101058.97;;;6.17;65.18
46223;BME280;31943;51.410;7.564;2023-03-04T10:08:35;101055.38;;;6.13;65.17
46223;BME280;31943;51.410;7.564;2023-03-04T10:11:06;101056.88;;;6.08;65.30
46223;BME280;31943;51.410;7.564;2023-03-04T10:13:37;101050.06;;;6.10;64.92
46223;BME280;31943;51.410;7.564;2023-03-04T10:16:09;101052.34;;;6.03;65.39
46223;BME280;31943;51.410;7.564;2023-03-04T10:18:44;101043.63;;;6.01;65.47
46223;BME280;31943;51.410;7.564;2023-03-04T10:21:22;101053.47;;;6.09;65.91
46223;BME280;31943;51.410;7.564;2023-03-04T10:23:51;101065.75;;;6.13;66.39
46223;BME280;31943;51.410;7.564;2023-03-04T10:26:18;101059.78;;;6.16;66.83
46223;BME280;31943;51.410;7.564;2023-03-04T10:28:44;101047.72;;;6.17;67.03
46223;BME280;31943;51.410;7.564;2023-03-04T10:31:16;101044.66;;;6.27;67.25
46223;BME280;31943;51.410;7.564;2023-03-04T10:33:46;101054.78;;;6.42;67.42
46223;BME280;31943;51.410;7.564;2023-03-04T10:36:25;101050.47;;;6.42;67.44
46223;BME280;31943;51.410;7.564;2023-03-04T10:39:00;101046.59;;;6.53;67.29
46223;BME280;31943;51.410;7.564;2023-03-04T10:41:29;101045.25;;;6.63;66.75
46223;BME280;31943;51.410;7.564;2023-03-04T10:44:00;101048.59;;;6.83;66.30
46223;BME280;31943;51.410;7.564;2023-03-04T10:46:26;101036.97;;;6.96;66.09
46223;BME280;31943;51.410;7.564;2023-03-04T10:48:54;101037.94;;;7.00;66.11
46223;BME280;31943;51.410;7.564;2023-03-04T10:51:22;101034.91;;;7.10;66.00
46223;BME280;31943;51.410;7.564;2023-03-04T10:53:56;101041.03;;;7.12;65.87
46223;BME280;31943;51.410;7.564;2023-03-04T10:56:31;101033.78;;;7.03;65.70
46223;BME280;31943;51.410;7.564;2023-03-04T11:02:18;101025.16;;;7.04;65.65
46223;BME280;31943;51.410;7.564;2023-03-04T11:05:16;101030.94;;;6.97;65.91
46223;BME280;31943;51.410;7.564;2023-03-04T11:10:30;101029.34;;;6.77;66.63
46223;BME280;31943;51.410;7.564;2023-03-04T11:13:00;101027.63;;;6.77;66.87
46223;BME280;31943;51.410;7.564;2023-03-04T11:15:29;101035.16;;;6.71;66.98
46223;BME280;31943;51.410;7.564;2023-03-04T11:18:04;101032.34;;;6.65;67.14
46223;BME280;31943;51.410;7.564;2023-03-04T11:20:34;101026.22;;;6.63;67.18
46223;BME280;31943;51.410;7.564;2023-03-04T11:23:04;101032.13;;;6.59;67.35
46223;BME280;31943;51.410;7.564;2023-03-04T11:25:32;101032.91;;;6.58;67.40
46223;BME280;31943;51.410;7.564;2023-03-04T11:28:09;101026.00;;;6.58;67.49
46223;BME280;31943;51.410;7.564;2023-03-04T11:30:41;101018.13;;;6.55;67.91
46223;BME280;31943;51.410;7.564;2023-03-04T11:33:20;101030.97;;;6.52;68.45
46223;BME280;31943;51.410;7.564;2023-03-04T11:35:54;101016.06;;;6.46;68.42
46223;BME280;31943;51.410;7.564;2023-03-04T11:38:23;101017.06;;;6.50;68.46
46223;BME280;31943;51.410;7.564;2023-03-04T11:40:53;101009.44;;;6.54;68.57
46223;BME280;31943;51.410;7.564;2023-03-04T11:43:26;101011.53;;;6.63;68.72
46223;BME280;31943;51.410;7.564;2023-03-04T11:49:07;100997.72;;;6.64;68.42
46223;BME280;31943;51.410;7.564;2023-03-04T11:51:40;100996.19;;;6.69;68.32
46223;BME280;31943;51.410;7.564;2023-03-04T11:54:16;100985.03;;;6.72;68.40
46223;BME280;31943;51.410;7.564;2023-03-04T11:56:49;100991.25;;;6.76;68.37
46223;BME280;31943;51.410;7.564;2023-03-04T11:59:32;100983.59;;;6.79;68.37
46223;BME280;31943;51.410;7.564;2023-03-04T12:02:12;100984.38;;;6.78;68.15
46223;BME280;31943;51.410;7.564;2023-03-04T12:08:06;100979.03;;;6.73;68.49
46223;BME280;31943;51.410;7.564;2023-03-04T12:10:39;100974.72;;;6.73;68.90
46223;BME280;31943;51.410;7.564;2023-03-04T12:13:23;100977.41;;;6.75;68.97
46223;BME280;31943;51.410;7.564;2023-03-04T12:16:01;100976.53;;;6.75;69.27
46223;BME280;31943;51.410;7.564;2023-03-04T12:18:48;100967.25;;;6.81;69.15
46223;BME280;31943;51.410;7.564;2023-03-04T12:21:31;100962.13;;;6.83;68.70
46223;BME280;31943;51.410;7.564;2023-03-04T12:24:36;100958.16;;;6.92;68.59
46223;BME280;31943;51.410;7.564;2023-03-04T12:27:13;100961.56;;;6.91;68.56
46223;BME280;31943;51.410;7.564;2023-03-04T12:29:51;100960.69;;;6.91;68.71
46223;BME280;31943;51.410;7.564;2023-03-04T12:32:28;100955.34;;;6.86;69.00
46223;BME280;31943;51.410;7.564;2023-03-04T12:35:31;100950.88;;;6.84;69.12
46223;BME280;31943;51.410;7.564;2023-03-04T12:38:20;100948.28;;;6.84;69.35
46223;BME280;31943;51.410;7.564;2023-03-04T12:40:57;100950.16;;;6.88;69.48
46223;BME280;31943;51.410;7.564;2023-03-04T12:43:37;100935.44;;;6.87;69.38
46223;BME280;31943;51.410;7.564;2023-03-04T12:46:12;100938.84;;;6.86;69.53
46223;BME280;31943;51.410;7.564;2023-03-04T12:48:41;100930.25;;;6.87;69.50
46223;BME280;31943;51.410;7.564;2023-03-04T12:51:19;100918.28;;;6.90;69.69
46223;BME280;31943;51.410;7.564;2023-03-04T12:53:57;100920.88;;;6.90;69.77
46223;BME280;31943;51.410;7.564;2023-03-04T12:56:38;100918.16;;;6.87;69.61
46223;BME280;31943;51.410;7.564;2023-03-04T12:59:12;100922.47;;;6.87;69.94
46223;BME280;31943;51.410;7.564;2023-03-04T13:01:41;100920.75;;;6.87;69.57
46223;BME280;31943;51.410;7.564;2023-03-04T13:04:15;100905.13;;;6.86;69.58
46223;BME280;31943;51.410;7.564;2023-03-04T13:07:01;100914.47;;;6.81;70.11
46223;BME280;31943;51.410;7.564;2023-03-04T13:09:47;100915.34;;;6.81;70.04
46223;BME280;31943;51.410;7.564;2023-03-04T13:12:47;100913.31;;;6.72;70.34
46223;BME280;31943;51.410;7.564;2023-03-04T13:15:37;100912.13;;;6.64;70.53
46223;BME280;31943;51.410;7.564;2023-03-04T13:18:31;100917.22;;;6.61;70.78
46223;BME280;31943;51.410;7.564;2023-03-04T13:21:16;100916.22;;;6.58;71.39
46223;BME280;31943;51.410;7.564;2023-03-04T13:23:52;100919.47;;;6.52;71.61
46223;BME280;31943;51.410;7.564;2023-03-04T13:26:44;100919.53;;;6.53;71.77
46223;BME280;31943;51.410;7.564;2023-03-04T13:29:40;100910.75;;;6.50;72.03
46223;BME280;31943;51.410;7.564;2023-03-04T13:32:35;100911.63;;;6.50;72.59
46223;BME280;31943;51.410;7.564;2023-03-04T13:35:21;100906.41;;;6.49;72.27
46223;BME280;31943;51.410;7.564;2023-03-04T13:37:59;100892.91;;;6.58;72.51
46223;BME280;31943;51.410;7.564;2023-03-04T13:40:36;100897.31;;;6.60;72.53
46223;BME280;31943;51.410;7.564;2023-03-04T13:43:36;100894.22;;;6.70;72.53
46223;BME280;31943;51.410;7.564;2023-03-04T13:46:37;100891.84;;;6.77;72.55
46223;BME280;31943;51.410;7.564;2023-03-04T13:49:18;100886.75;;;6.80;72.26
46223;BME280;31943;51.410;7.564;2023-03-04T13:51:51;100889.47;;;6.83;72.09
46223;BME280;31943;51.410;7.564;2023-03-04T13:54:26;100892.13;;;6.84;72.17
46223;BME280;31943;51.410;7.564;2023-03-04T13:57:17;100882.69;;;6.86;71.88
46223;BME280;31943;51.410;7.564;2023-03-04T13:59:47;100885.06;;;6.80;71.86
46223;BME280;31943;51.410;7.564;2023-03-04T14:02:23;100879.75;;;6.77;71.20
46223;BME280;31943;51.410;7.564;2023-03-04T14:04:57;100889.91;;;6.71;70.92
46223;BME280;31943;51.410;7.564;2023-03-04T14:07:35;100885.31;;;6.64;71.06
46223;BME280;31943;51.410;7.564;2023-03-04T14:10:03;100867.13;;;6.62;70.84
46223;BME280;31943;51.410;7.564;2023-03-04T14:15:23;100860.53;;;6.72;71.25
46223;BME280;31943;51.410;7.564;2023-03-04T14:17:59;100859.94;;;6.79;70.87
46223;BME280;31943;51.410;7.564;2023-03-04T14:20:27;100855.75;;;6.83;70.50
46223;BME280;31943;51.410;7.564;2023-03-04T14:22:54;100850.91;;;6.93;70.04
46223;BME280;31943;51.410;7.564;2023-03-04T14:25:24;100855.03;;;7.12;69.40
46223;BME280;31943;51.410;7.564;2023-03-04T14:28:01;100850.97;;;7.21;68.87
46223;BME280;31943;51.410;7.564;2023-03-04T14:30:31;100851.03;;;7.22;68.80
46223;BME280;31943;51.410;7.564;2023-03-04T14:33:00;100851.09;;;7.24;68.82
46223;BME280;31943;51.410;7.564;2023-03-04T14:35:29;100845.09;;;7.26;68.92
46223;BME280;31943;51.410;7.564;2023-03-04T14:38:00;100849.44;;;7.26;67.84
46223;BME280;31943;51.410;7.564;2023-03-04T14:40:30;100839.59;;;7.17;68.16
46223;BME280;31943;51.410;7.564;2023-03-04T14:43:00;100842.78;;;7.08;68.15
46223;BME280;31943;51.410;7.564;2023-03-04T14:45:28;100840.19;;;7.08;68.14
46223;BME280;31943;51.410;7.564;2023-03-04T14:47:59;100841.06;;;7.09;68.23
46223;BME280;31943;51.410;7.564;2023-03-04T14:50:29;100828.00;;;7.06;67.42
46223;BME280;31943;51.410;7.564;2023-03-04T14:53:14;100834.69;;;6.99;67.18
46223;BME280;31943;51.410;7.564;2023-03-04T14:55:56;100830.16;;;6.93;67.43
46223;BME280;31943;51.410;7.564;2023-03-04T14:58:24;100824.78;;;6.87;67.91
46223;BME280;31943;51.410;7.564;2023-03-04T15:01:03;100820.56;;;6.91;68.02
46223;BME280;31943;51.410;7.564;2023-03-04T15:03:31;100818.13;;;6.96;68.12
46223;BME280;31943;51.410;7.564;2023-03-04T15:06:06;100816.44;;;6.96;67.60
46223;BME280;31943;51.410;7.564;2023-03-04T15:08:35;100816.47;;;6.98;67.84
46223;BME280;31943;51.410;7.564;2023-03-04T15:11:05;100816.56;;;7.01;68.05
46223;BME280;31943;51.410;7.564;2023-03-04T15:13:38;100808.13;;;7.06;67.90
46223;BME280;31943;51.410;7.564;2023-03-04T15:16:05;100808.19;;;7.08;67.22
46223;BME280;31943;51.410;7.564;2023-03-04T15:18:33;100809.00;;;7.07;66.91
46223;BME280;31943;51.410;7.564;2023-03-04T15:21:02;100805.41;;;7.03;67.00
46223;BME280;31943;51.410;7.564;2023-03-04T15:23:30;100801.16;;;7.05;67.16
46223;BME280;31943;51.410;7.564;2023-03-04T15:25:58;100803.75;;;7.05;67.02
46223;BME280;31943;51.410;7.564;2023-03-04T15:28:24;100805.38;;;7.02;66.97
46223;BME280;31943;51.410;7.564;2023-03-04T15:30:52;100805.25;;;6.99;66.95
46223;BME280;31943;51.410;7.564;2023-03-04T15:33:18;100803.28;;;6.91;66.79
46223;BME280;31943;51.410;7.564;2023-03-04T15:35:50;100804.88;;;6.88;66.83
46223;BME280;31943;51.410;7.564;2023-03-04T15:38:18;100808.34;;;6.87;66.71
46223;BME280;31943;51.410;7.564;2023-03-04T15:40:46;100812.59;;;6.85;66.90
46223;BME280;31943;51.410;7.564;2023-03-04T15:43:14;100806.56;;;6.86;66.50
46223;BME280;31943;51.410;7.564;2023-03-04T15:45:41;100812.53;;;6.83;66.23
46223;BME280;31943;51.410;7.564;2023-03-04T15:48:09;100799.50;;;6.82;66.42
46223;BME280;31943;51.410;7.564;2023-03-04T15:50:38;100809.66;;;6.76;63.77
46223;BME280;31943;51.410;7.564;2023-03-04T15:53:13;100814.53;;;6.66;63.88
46223;BME280;31943;51.410;7.564;2023-03-04T15:55:39;100812.66;;;6.62;64.25
46223;BME280;31943;51.410;7.564;2023-03-04T15:58:10;100819.56;;;6.62;63.68
46223;BME280;31943;51.410;7.564;2023-03-04T16:00:37;100813.44;;;6.60;63.48
46223;BME280;31943;51.410;7.564;2023-03-04T16:03:15;100806.31;;;6.54;63.36
46223;BME280;31943;51.410;7.564;2023-03-04T16:05:50;100803.84;;;6.57;63.47
46223;BME280;31943;51.410;7.564;2023-03-04T16:08:32;100804.88;;;6.62;63.43
46223;BME280;31943;51.410;7.564;2023-03-04T16:10:58;100814.38;;;6.62;63.53
46223;BME280;31943;51.410;7.564;2023-03-04T16:13:24;100806.59;;;6.62;62.82
46223;BME280;31943;51.410;7.564;2023-03-04T16:15:50;100810.97;;;6.63;62.97
46223;BME280;31943;51.410;7.564;2023-03-04T16:18:16;100803.19;;;6.63;62.69
46223;BME280;31943;51.410;7.564;2023-03-04T16:20:44;100805.78;;;6.63;62.62
46223;BME280;31943;51.410;7.564;2023-03-04T16:23:12;100810.25;;;6.67;62.34
46223;BME280;31943;51.410;7.564;2023-03-04T16:25:41;100810.13;;;6.64;61.94
46223;BME280;31943;51.410;7.564;2023-03-04T16:28:09;100806.50;;;6.59;62.08
46223;BME280;31943;51.410;7.564;2023-03-04T16:30:35;100801.41;;;6.62;61.91
46223;BME280;31943;51.410;7.564;2023-03-04T16:33:01;100806.44;;;6.57;62.19
46223;BME280;31943;51.410;7.564;2023-03-04T16:35:31;100804.78;;;6.59;62.05
46223;BME280;31943;51.410;7.564;2023-03-04T16:37:57;100803.91;;;6.59;62.08
46223;BME280;31943;51.410;7.564;2023-03-04T16:40:26;100797.88;;;6.60;61.84
46223;BME280;31943;51.410;7.564;2023-03-04T16:43:02;100796.13;;;6.59;61.90
46223;BME280;31943;51.410;7.564;2023-03-04T16:45:30;100797.09;;;6.62;61.88
46223;BME280;31943;51.410;7.564;2023-03-04T16:48:00;100801.41;;;6.62;61.62
46223;BME280;31943;51.410;7.564;2023-03-04T16:50:27;100802.25;;;6.61;60.97
46223;BME280;31943;51.410;7.564;2023-03-04T16:53:19;100800.41;;;6.58;61.12
46223;BME280;31943;51.410;7.564;2023-03-04T16:55:46;100802.97;;;6.57;61.33
46223;BME280;31943;51.410;7.564;2023-03-04T16:58:15;100801.31;;;6.59;61.42
46223;BME280;31943;51.410;7.564;2023-03-04T17:00:44;100796.16;;;6.60;61.38
46223;BME280;31943;51.410;7.564;2023-03-04T17:03:14;100804.94;;;6.64;61.33
46223;BME280;31943;51.410;7.564;2023-03-04T17:05:41;100797.22;;;6.65;61.44
46223;BME280;31943;51.410;7.564;2023-03-04T17:08:08;100802.47;;;6.67;61.31
46223;BME280;31943;51.410;7.564;2023-03-04T17:10:47;100796.38;;;6.66;61.26
46223;BME280;31943;51.410;7.564;2023-03-04T17:13:18;100800.69;;;6.66;61.21
46223;BME280;31943;51.410;7.564;2023-03-04T17:18:33;100801.47;;;6.63;61.15
46223;BME280;31943;51.410;7.564;2023-03-04T17:21:05;100803.28;;;6.66;61.15
46223;BME280;31943;51.410;7.564;2023-03-04T17:23:33;100804.13;;;6.65;61.14
46223;BME280;31943;51.410;7.564;2023-03-04T17:26:04;100807.53;;;6.64;60.79
46223;BME280;31943;51.410;7.564;2023-03-04T17:28:32;100806.50;;;6.59;60.79
46223;BME280;31943;51.410;7.564;2023-03-04T17:30:59;100811.56;;;6.56;60.92
46223;BME280;31943;51.410;7.564;2023-03-04T17:33:28;100812.44;;;6.56;60.89
46223;BME280;31943;51.410;7.564;2023-03-04T17:35:54;100812.38;;;6.54;60.68
46223;BME280;31943;51.410;7.564;2023-03-04T17:38:20;100812.38;;;6.54;60.58
46223;BME280;31943;51.410;7.564;2023-03-04T17:40:48;100810.69;;;6.55;60.68
46223;BME280;31943;51.410;7.564;2023-03-04T17:43:14;100813.22;;;6.53;60.39
46223;BME280;31943;51.410;7.564;2023-03-04T17:45:42;100809.69;;;6.51;60.18
46223;BME280;31943;51.410;7.564;2023-03-04T17:48:10;100813.03;;;6.47;60.68
46223;BME280;31943;51.410;7.564;2023-03-04T17:50:37;100817.34;;;6.48;60.32
46223;BME280;31943;51.410;7.564;2023-03-04T17:53:08;100811.16;;;6.43;60.35
46223;BME280;31943;51.410;7.564;2023-03-04T17:55:39;100810.97;;;6.39;60.11
46223;BME280;31943;51.410;7.564;2023-03-04T17:58:05;100817.94;;;6.40;60.43
46223;BME280;31943;51.410;7.564;2023-03-04T18:00:31;100806.69;;;6.39;60.60
46223;BME280;31943;51.410;7.564;2023-03-04T18:03:01;100814.50;;;6.41;60.65
46223;BME280;31943;51.410;7.564;2023-03-04T18:05:29;100813.63;;;6.40;60.67
46223;BME280;31943;51.410;7.564;2023-03-04T18:07:55;100816.22;;;6.40;60.77
46223;BME280;31943;51.410;7.564;2023-03-04T18:10:21;100815.41;;;6.41;60.59
46223;BME280;31943;51.410;7.564;2023-03-04T18:12:47;100810.16;;;6.40;60.58
46223;BME280;31943;51.410;7.564;2023-03-04T18:15:12;100816.22;;;6.40;60.69
46223;BME280;31943;51.410;7.564;2023-03-04T18:17:38;100810.88;;;6.36;60.40
46223;BME280;31943;51.410;7.564;2023-03-04T18:20:06;100811.69;;;6.34;60.31
46223;BME280;31943;51.410;7.564;2023-03-04T18:22:32;100812.53;;;6.33;60.66
46223;BME280;31943;51.410;7.564;2023-03-04T18:24:57;100812.47;;;6.32;60.34
46223;BME280;31943;51.410;7.564;2023-03-04T18:27:28;100814.19;;;6.31;60.24
46223;BME280;31943;51.410;7.564;2023-03-04T18:29:53;100809.47;;;6.21;60.54
46223;BME280;31943;51.410;7.564;2023-03-04T18:32:20;100814.63;;;6.20;60.88
46223;BME280;31943;51.410;7.564;2023-03-04T18:34:45;100811.97;;;6.18;60.86
46223;BME280;31943;51.410;7.564;2023-03-04T18:37:12;100815.03;;;6.08;61.28
46223;BME280;31943;51.410;7.564;2023-03-04T18:39:38;100816.50;;;6.01;61.59
46223;BME280;31943;51.410;7.564;2023-03-04T18:42:04;100815.56;;;5.99;61.38
46223;BME280;31943;51.410;7.564;2023-03-04T18:44:30;100809.31;;;5.94;61.21
46223;BME280;31943;51.410;7.564;2023-03-04T18:46:58;100812.91;;;5.98;61.33
46223;BME280;31943;51.410;7.564;2023-03-04T18:49:24;100809.50;;;5.99;61.39
46223;BME280;31943;51.410;7.564;2023-03-04T18:51:51;100813.59;;;5.93;61.02
46223;BME280;31943;51.410;7.564;2023-03-04T18:54:18;100810.28;;;5.96;61.04
46223;BME280;31943;51.410;7.564;2023-03-04T18:56:46;100813.56;;;5.92;61.12
46223;BME280;31943;51.410;7.564;2023-03-04T18:59:15;100825.66;;;5.93;60.65
46223;BME280;31943;51.410;7.564;2023-03-04T19:01:42;100816.81;;;5.88;60.44
46223;BME280;31943;51.410;7.564;2023-03-04T19:04:09;100814.06;;;5.83;60.36
46223;BME280;31943;51.410;7.564;2023-03-04T19:06:35;100811.38;;;5.80;60.15
46223;BME280;31943;51.410;7.564;2023-03-04T19:09:01;100814.66;;;5.76;60.35
46223;BME280;31943;51.410;7.564;2023-03-04T19:11:28;100819.03;;;5.77;60.55
46223;BME280;31943;51.410;7.564;2023-03-04T19:13:55;100822.47;;;5.78;60.68
46223;BME280;31943;51.410;7.564;2023-03-04T19:16:20;100821.47;;;5.74;60.65
46223;BME280;31943;51.410;7.564;2023-03-04T19:18:46;100818.09;;;5.75;60.75
46223;BME280;31943;51.410;7.564;2023-03-04T19:21:12;100824.97;;;5.74;60.91
46223;BME280;31943;51.410;7.564;2023-03-04T19:23:40;100827.56;;;5.74;60.88
46223;BME280;31943;51.410;7.564;2023-03-04T19:26:07;100831.09;;;5.77;61.07
46223;BME280;31943;51.410;7.564;2023-03-04T19:28:37;100832.84;;;5.78;60.87
46223;BME280;31943;51.410;7.564;2023-03-04T19:31:07;100844.16;;;5.80;60.86
46223;BME280;31943;51.410;7.564;2023-03-04T19:33:34;100843.81;;;5.70;61.10
46223;BME280;31943;51.410;7.564;2023-03-04T19:36:00;100839.28;;;5.65;61.00
46223;BME280;31943;51.410;7.564;2023-03-04T19:38:27;100841.78;;;5.63;61.27
46223;BME280;31943;51.410;7.564;2023-03-04T19:40:53;100846.09;;;5.63;61.20
46223;BME280;31943;51.410;7.564;2023-03-04T19:43:20;100842.44;;;5.58;61.34
46223;BME280;31943;51.410;7.564;2023-03-04T19:45:53;100845.81;;;5.57;61.40
46223;BME280;31943;51.410;7.564;2023-03-04T19:48:22;100835.47;;;5.57;61.61
46223;BME280;31943;51.410;7.564;2023-03-04T19:50:48;100844.38;;;5.63;61.55
46223;BME280;31943;51.410;7.564;2023-03-04T19:53:14;100838.25;;;5.61;61.44
46223;BME280;31943;51.410;7.564;2023-03-04T19:55:41;100842.56;;;5.61;61.38
46223;BME280;31943;51.410;7.564;2023-03-04T19:58:06;100847.75;;;5.61;61.65
46223;BME280;31943;51.410;7.564;2023-03-04T20:00:34;100852.97;;;5.62;61.44
46223;BME280;31943;51.410;7.564;2023-03-04T20:03:02;100840.84;;;5.61;61.63
46223;BME280;31943;51.410;7.564;2023-03-04T20:05:30;100843.44;;;5.61;61.64
46223;BME280;31943;51.410;7.564;2023-03-04T20:08:01;100847.78;;;5.62;61.56
46223;BME280;31943;51.410;7.564;2023-03-04T20:10:30;100846.13;;;5.64;61.72
46223;BME280;31943;51.410;7.564;2023-03-04T20:12:55;100840.22;;;5.67;61.70
46223;BME280;31943;51.410;7.564;2023-03-04T20:15:21;100850.66;;;5.70;61.48
46223;BME280;31943;51.410;7.564;2023-03-04T20:17:47;100843.91;;;5.73;61.69
46223;BME280;31943;51.410;7.564;2023-03-04T20:20:19;100837.97;;;5.76;61.30
46223;BME280;31943;51.410;7.564;2023-03-04T20:22:45;100843.03;;;5.73;60.94
46223;BME280;31943;51.410;7.564;2023-03-04T20:25:11;100836.91;;;5.71;60.92
46223;BME280;31943;51.410;7.564;2023-03-04T20:27:37;100842.16;;;5.72;61.14
46223;BME280;31943;51.410;7.564;2023-03-04T20:30:05;100839.44;;;5.69;60.45
46223;BME280;31943;51.410;7.564;2023-03-04T20:32:33;100839.19;;;5.63;60.51
46223;BME280;31943;51.410;7.564;2023-03-04T20:34:59;100837.31;;;5.59;60.65
46223;BME280;31943;51.410;7.564;2023-03-04T20:37:28;100832.88;;;5.57;60.48
46223;BME280;31943;51.410;7.564;2023-03-04T20:39:54;100835.38;;;5.53;60.48
46223;BME280;31943;51.410;7.564;2023-03-04T20:42:24;100833.53;;;5.51;60.43
46223;BME280;31943;51.410;7.564;2023-03-04T20:44:50;100839.53;;;5.50;60.50
46223;BME280;31943;51.410;7.564;2023-03-04T20:47:16;100836.94;;;5.50;60.40
46223;BME280;31943;51.410;7.564;2023-03-04T20:49:45;100846.22;;;5.45;60.43
46223;BME280;31943;51.410;7.564;2023-03-04T20:52:11;100841.81;;;5.42;60.00
46223;BME280;31943;51.410;7.564;2023-03-04T20:54:39;100843.53;;;5.42;59.84
46223;BME280;31943;51.410;7.564;2023-03-04T20:57:05;100843.53;;;5.42;60.18
46223;BME280;31943;51.410;7.564;2023-03-04T20:59:32;100850.41;;;5.41;59.89
46223;BME280;31943;51.410;7.564;2023-03-04T21:01:58;100843.44;;;5.40;60.19
46223;BME280;31943;51.410;7.564;2023-03-04T21:04:24;100842.56;;;5.40;60.37
46223;BME280;31943;51.410;7.564;2023-03-04T21:06:51;100837.47;;;5.41;59.96
46223;BME280;31943;51.410;7.564;2023-03-04T21:09:19;100841.75;;;5.41;60.08
46223;BME280;31943;51.410;7.564;2023-03-04T21:11:48;100835.94;;;5.46;60.51
46223;BME280;31943;51.410;7.564;2023-03-04T21:14:19;100836.06;;;5.49;60.71
46223;BME280;31943;51.410;7.564;2023-03-04T21:16:45;100836.69;;;5.44;60.92
46223;BME280;31943;51.410;7.564;2023-03-04T21:19:13;100834.91;;;5.43;61.54
46223;BME280;31943;51.410;7.564;2023-03-04T21:21:39;100836.56;;;5.41;61.90
46223;BME280;31943;51.410;7.564;2023-03-04T21:24:20;100825.22;;;5.37;62.26
46223;BME280;31943;51.410;7.564;2023-03-04T21:26:49;100832.03;;;5.35;62.39
46223;BME280;31943;51.410;7.564;2023-03-04T21:29:16;100831.91;;;5.32;62.47
46223;BME280;31943;51.410;7.564;2023-03-04T21:31:44;100835.28;;;5.29;62.37
46223;BME280;31943;51.410;7.564;2023-03-04T21:34:14;100830.84;;;5.27;62.52
46223;BME280;31943;51.410;7.564;2023-03-04T21:36:40;100828.94;;;5.23;62.42
46223;BME280;31943;51.410;7.564;2023-03-04T21:39:05;100819.22;;;5.17;62.42
46223;BME280;31943;51.410;7.564;2023-03-04T21:41:31;100818.22;;;5.13;61.90
46223;BME280;31943;51.410;7.564;2023-03-04T21:44:01;100827.56;;;5.10;61.76
46223;BME280;31943;51.410;7.564;2023-03-04T21:46:27;100830.91;;;5.07;61.63
46223;BME280;31943;51.410;7.564;2023-03-04T21:48:53;100822.97;;;5.03;61.94
46223;BME280;31943;51.410;7.564;2023-03-04T21:51:19;100825.28;;;4.97;60.96
46223;BME280;31943;51.410;7.564;2023-03-04T21:53:44;100823.31;;;4.91;61.40
46223;BME280;31943;51.410;7.564;2023-03-04T21:56:12;100822.44;;;4.90;60.58
46223;BME280;31943;51.410;7.564;2023-03-04T21:58:38;100825.72;;;4.86;60.41
46223;BME280;31943;51.410;7.564;2023-03-04T22:01:11;100828.09;;;4.82;60.00
46223;BME280;31943;51.410;7.564;2023-03-04T22:03:43;100815.88;;;4.78;60.23
46223;BME280;31943;51.410;7.564;2023-03-04T22:06:11;100818.38;;;4.76;60.01
46223;BME280;31943;51.410;7.564;2023-03-04T22:08:38;100817.31;;;4.71;59.82
46223;BME280;31943;51.410;7.564;2023-03-04T22:11:05;100815.53;;;4.70;59.55
46223;BME280;31943;51.410;7.564;2023-03-04T22:13:31;100806.75;;;4.66;59.59
46223;BME280;31943;51.410;7.564;2023-03-04T22:15:58;100805.81;;;4.64;59.71
46223;BME280;31943;51.410;7.564;2023-03-04T22:18:26;100809.31;;;4.65;59.60
46223;BME280;31943;51.410;7.564;2023-03-04T22:20:58;100809.34;;;4.66;59.80
46223;BME280;31943;51.410;7.564;2023-03-04T22:23:25;100802.44;;;4.65;59.69
46223;BME280;31943;51.410;7.564;2023-03-04T22:25:51;100801.59;;;4.66;59.69
46223;BME280;31943;51.410;7.564;2023-03-04T22:28:16;100800.72;;;4.66;59.56
46223;BME280;31943;51.410;7.564;2023-03-04T22:30:43;100800.66;;;4.64;59.63